createdAt,value
2022-09-16T00:00:20.554Z,3.10
2022-09-16T00:05:22.483Z,3.40
2022-09-16T00:10:23.851Z,3.40
2022-09-16T00:15:25.146Z,3.43
2022-09-16T00:20:26.675Z,3.17
2022-09-16T00:25:27.959Z,3.30
2022-09-16T00:30:29.263Z,3.13
2022-09-16T00:35:30.526Z,3.37
2022-09-16T00:40:32.018Z,3.47
2022-09-16T00:45:33.833Z,2.93
2022-09-16T00:50:43.622Z,3.40
2022-09-16T00:55:45.125Z,3.00
2022-09-16T01:00:46.440Z,3.13
2022-09-16T01:05:48.435Z,3.20
2022-09-16T01:10:49.725Z,3.72
2022-09-16T01:15:57.263Z,3.10
2022-09-16T01:21:01.378Z,3.60
2022-09-16T01:26:20.151Z,3.50
2022-09-16T01:31:35.372Z,3.22
2022-09-16T01:36:41.772Z,3.60
2022-09-16T01:41:49.058Z,3.00
2022-09-16T01:46:59.638Z,3.55
2022-09-16T01:52:19.285Z,3.43
2022-09-16T01:57:34.465Z,3.38
2022-09-16T02:02:39.235Z,3.50
2022-09-16T02:07:42.812Z,3.70
2022-09-16T02:12:44.679Z,3.40
2022-09-16T02:17:48.079Z,3.58
2022-09-16T02:22:52.896Z,3.60
2022-09-16T02:27:54.208Z,3.90
2022-09-16T02:32:58.487Z,3.60
2022-09-16T02:38:02.891Z,3.53
2022-09-16T02:43:04.289Z,3.47
2022-09-16T02:48:12.893Z,4.05
2022-09-16T02:53:14.135Z,3.57
2022-09-16T02:58:15.404Z,3.80
2022-09-16T03:03:17.571Z,4.20
2022-09-16T03:08:18.941Z,4.05
2022-09-16T03:13:31.871Z,3.63
2022-09-16T03:18:56.395Z,3.75
2022-09-16T03:24:00.744Z,3.70
2022-09-16T03:29:20.901Z,3.67
2022-09-16T03:34:28.148Z,3.70
2022-09-16T03:39:29.928Z,3.35
2022-09-16T03:44:32.124Z,3.47
2022-09-16T03:49:33.710Z,3.63
2022-09-16T03:54:35.722Z,3.65
2022-09-16T03:59:36.983Z,4.00
2022-09-16T04:04:38.451Z,4.10
2022-09-16T04:09:40.137Z,3.78
2022-09-16T04:14:41.760Z,3.65
2022-09-16T04:19:43.073Z,3.60
2022-09-16T04:24:44.436Z,3.35
2022-09-16T04:29:45.758Z,3.40
2022-09-16T04:34:47.020Z,3.70
2022-09-16T04:39:48.254Z,3.88
2022-09-16T04:44:49.501Z,3.10
2022-09-16T04:49:51.147Z,3.40
2022-09-16T04:54:52.428Z,3.95
2022-09-16T04:59:54.045Z,4.20
2022-09-16T05:04:55.677Z,3.50
2022-09-16T05:09:57.014Z,3.70
2022-09-16T05:14:58.857Z,3.70
2022-09-16T05:20:00.170Z,4.20
2022-09-16T05:25:01.434Z,3.83
2022-09-16T05:30:02.728Z,4.55
2022-09-16T05:35:04.076Z,4.63
2022-09-16T05:40:05.814Z,4.37
2022-09-16T05:45:07.405Z,4.60
2022-09-16T05:50:08.733Z,4.38
2022-09-16T05:55:10.418Z,3.57
2022-09-16T06:00:12.575Z,3.92
2022-09-16T06:05:14.177Z,3.70
2022-09-16T06:10:15.458Z,4.23
2022-09-16T06:15:16.744Z,3.53
2022-09-16T06:20:18.030Z,3.67
2022-09-16T06:25:19.370Z,3.77
2022-09-16T06:30:20.642Z,3.50
2022-09-16T06:35:21.905Z,3.30
2022-09-16T06:40:23.210Z,3.90
2022-09-16T06:45:24.996Z,4.10
2022-09-16T06:50:26.449Z,3.45
2022-09-16T06:55:27.720Z,3.80
2022-09-16T07:00:29.004Z,3.80
2022-09-16T07:05:31.201Z,3.25
2022-09-16T07:10:35.221Z,3.20
2022-09-16T07:15:50.948Z,3.27
2022-09-16T07:21:04.245Z,3.53
2022-09-16T07:26:09.189Z,3.60
2022-09-16T07:31:12.038Z,3.70
2022-09-16T07:36:14.894Z,3.40
2022-09-16T07:41:17.903Z,3.25
2022-09-16T07:46:19.910Z,3.60
2022-09-16T07:51:24.976Z,3.67
2022-09-16T07:56:28.867Z,3.70
2022-09-16T08:01:33.434Z,4.70
2022-09-16T08:06:37.647Z,3.87
2022-09-16T08:11:38.958Z,3.47
2022-09-16T08:16:40.301Z,3.30
2022-09-16T08:21:41.689Z,2.80
2022-09-16T08:26:43.207Z,3.00
2022-09-16T08:31:45.239Z,3.25
2022-09-16T08:36:47.093Z,2.78
2022-09-16T08:41:48.399Z,2.57
2022-09-16T08:46:49.738Z,2.80
2022-09-16T08:51:51.380Z,3.00
2022-09-16T08:56:54.120Z,3.00
2022-09-16T09:02:20.153Z,3.57
2022-09-16T09:07:22.058Z,3.22
2022-09-16T09:12:27.052Z,2.97
2022-09-16T09:17:37.025Z,2.93
2022-09-16T09:22:49.056Z,3.05
2022-09-16T09:28:02.641Z,2.88
2022-09-16T09:33:45.676Z,3.13
2022-09-16T09:38:50.737Z,2.70
2022-09-16T09:43:55.066Z,2.92
2022-09-16T09:49:10.469Z,3.13
2022-09-16T09:54:32.253Z,2.85
2022-09-16T09:59:45.353Z,3.03
2022-09-16T10:04:48.570Z,2.80
2022-09-16T10:10:01.359Z,7.82
2022-09-16T10:15:02.902Z,3.30
2022-09-16T10:20:07.127Z,3.10
2022-09-16T10:25:24.527Z,3.30
2022-09-16T10:30:26.730Z,3.25
2022-09-16T10:35:30.025Z,3.08
2022-09-16T10:40:31.683Z,2.83
2022-09-16T10:45:36.962Z,4.13
2022-09-16T10:50:38.280Z,3.42
2022-09-16T10:55:39.598Z,3.20
2022-09-16T11:00:48.431Z,2.83
2022-09-16T11:05:58.294Z,4.60
2022-09-16T11:10:59.535Z,3.10
2022-09-16T11:16:19.348Z,3.07
2022-09-16T11:21:26.980Z,2.95
2022-09-16T11:26:31.600Z,3.15
2022-09-16T11:31:32.896Z,2.63
2022-09-16T11:36:34.357Z,2.17
2022-09-16T11:41:41.122Z,2.40
2022-09-16T11:46:59.337Z,2.10
2022-09-16T11:52:09.937Z,2.22
2022-09-16T11:57:15.224Z,1.90
2022-09-16T12:02:16.929Z,1.90
2022-09-16T12:12:24.072Z,2.13
2022-09-16T12:17:31.416Z,1.98
2022-09-16T12:22:33.036Z,2.00
2022-09-16T12:27:34.897Z,1.90
2022-09-16T12:32:46.430Z,2.00
2022-09-16T12:37:49.346Z,2.20
2022-09-16T12:42:53.681Z,2.10
2022-09-16T12:48:10.464Z,1.67
2022-09-16T12:53:11.751Z,1.47
2022-09-16T12:58:13.001Z,1.90
2022-09-16T13:03:19.529Z,1.65
2022-09-16T13:08:20.775Z,1.60
2022-09-16T13:13:29.666Z,1.77
2022-09-16T13:19:00.444Z,1.95
2022-09-16T13:24:06.007Z,1.88
2022-09-16T13:29:25.967Z,2.20
2022-09-16T13:34:27.215Z,2.00
2022-09-16T13:39:30.271Z,1.77
2022-09-16T13:44:38.520Z,1.67
2022-09-16T13:49:47.802Z,1.50
2022-09-16T13:55:09.459Z,2.88
2022-09-16T14:00:13.907Z,1.45
2022-09-16T14:05:42.976Z,1.20
2022-09-16T14:11:07.985Z,1.52
2022-09-16T14:16:16.004Z,2.00
2022-09-16T14:21:19.236Z,1.33
2022-09-16T14:26:24.935Z,1.40
2022-09-16T14:31:28.910Z,1.20
2022-09-16T14:36:38.795Z,1.27
2022-09-16T14:41:43.225Z,1.23
2022-09-16T14:47:09.035Z,1.30
2022-09-16T14:52:18.305Z,1.27
2022-09-16T14:57:25.640Z,1.40
2022-09-16T15:02:29.580Z,1.02
2022-09-16T15:07:34.287Z,1.13
2022-09-16T15:12:38.887Z,1.20
2022-09-16T15:17:40.311Z,1.23
2022-09-16T15:22:41.610Z,1.20
2022-09-16T15:27:43.044Z,1.20
2022-09-16T15:32:44.509Z,1.53
2022-09-16T15:37:45.926Z,1.40
2022-09-16T15:43:01.309Z,1.00
2022-09-16T15:48:07.288Z,1.07
2022-09-16T15:53:12.831Z,1.45
2022-09-16T15:58:24.555Z,0.93
2022-09-16T16:03:26.044Z,1.00
2022-09-16T16:08:46.344Z,1.00
2022-09-16T16:13:48.006Z,1.10
2022-09-16T16:18:49.380Z,0.90
2022-09-16T16:23:50.689Z,0.80
2022-09-16T16:28:52.172Z,0.88
2022-09-16T16:33:54.087Z,1.00
2022-09-16T16:38:55.466Z,0.83
2022-09-16T16:43:56.731Z,0.88
2022-09-16T16:48:58.034Z,0.60
2022-09-16T16:54:00.002Z,0.80
2022-09-16T16:59:01.378Z,0.90
2022-09-16T17:04:02.989Z,1.10
2022-09-16T17:09:07.208Z,1.10
2022-09-16T17:14:08.873Z,0.90
2022-09-16T17:19:10.157Z,1.08
2022-09-16T17:24:11.873Z,0.73
2022-09-16T17:29:16.108Z,0.57
2022-09-16T17:34:20.631Z,0.60
2022-09-16T17:39:22.598Z,0.80
2022-09-16T17:44:25.043Z,0.67
2022-09-16T17:49:27.124Z,0.90
2022-09-16T17:54:28.452Z,0.40
2022-09-16T17:59:29.737Z,0.70
2022-09-16T18:04:31.516Z,0.60
2022-09-16T18:09:32.977Z,0.70
2022-09-16T18:14:34.250Z,0.53
2022-09-16T18:19:35.609Z,0.87
2022-09-16T18:24:36.875Z,0.80
2022-09-16T18:29:39.061Z,0.60
2022-09-16T18:34:40.374Z,0.90
2022-09-16T18:39:41.693Z,0.80
2022-09-16T18:44:42.966Z,0.73
2022-09-16T18:49:44.207Z,0.80
2022-09-16T18:54:48.102Z,0.60
2022-09-16T18:59:49.420Z,0.70
2022-09-16T19:04:50.992Z,0.83
2022-09-16T19:09:52.279Z,0.90
2022-09-16T19:14:55.601Z,0.50
2022-09-16T19:19:57.085Z,0.80
2022-09-16T19:24:58.356Z,0.50
2022-09-16T19:29:59.853Z,0.60
2022-09-16T19:35:01.136Z,0.60
2022-09-16T19:40:02.581Z,0.70
2022-09-16T19:45:04.004Z,0.50
2022-09-16T19:50:07.748Z,0.70
2022-09-16T19:55:09.716Z,0.60
2022-09-16T20:00:14.584Z,0.67
2022-09-16T20:05:16.167Z,0.68
2022-09-16T20:10:18.158Z,0.80
2022-09-16T20:15:19.423Z,0.80
2022-09-16T20:20:22.148Z,0.90
2022-09-16T20:25:23.851Z,0.65
2022-09-16T20:30:25.391Z,0.73
2022-09-16T20:35:26.721Z,0.60
2022-09-16T20:40:28.083Z,0.57
2022-09-16T20:45:29.437Z,0.70
2022-09-16T20:50:31.317Z,0.70
2022-09-16T20:55:35.990Z,0.68
2022-09-16T21:00:37.845Z,0.80
2022-09-16T21:05:39.201Z,0.80
2022-09-16T21:10:40.473Z,0.80
2022-09-16T21:15:41.760Z,0.60
2022-09-16T21:20:43.956Z,0.60
2022-09-16T21:25:45.263Z,0.50
2022-09-16T21:30:46.549Z,0.70
2022-09-16T21:35:54.078Z,0.80
2022-09-16T21:40:56.110Z,0.73
2022-09-16T21:46:00.468Z,0.53
2022-09-16T21:51:03.454Z,0.45
2022-09-16T21:56:06.052Z,0.50
2022-09-16T22:01:11.459Z,0.70
2022-09-16T22:06:13.827Z,0.80
2022-09-16T22:11:16.076Z,0.60
2022-09-16T22:16:18.592Z,0.70
2022-09-16T22:21:21.293Z,0.60
2022-09-16T22:26:23.159Z,0.60
2022-09-16T22:31:29.081Z,0.60
2022-09-16T22:36:31.569Z,0.60
2022-09-16T22:41:33.695Z,0.60
2022-09-16T22:46:38.634Z,0.80
2022-09-16T22:51:40.578Z,0.80
2022-09-16T22:56:42.711Z,0.50
2022-09-16T23:01:44.065Z,0.53
2022-09-16T23:06:45.726Z,0.80
2022-09-16T23:11:46.998Z,0.60
2022-09-16T23:16:48.434Z,0.63
2022-09-16T23:21:49.985Z,0.80
2022-09-16T23:26:51.470Z,0.60
2022-09-16T23:31:52.712Z,0.90
2022-09-16T23:36:54.004Z,0.90
2022-09-16T23:41:56.341Z,1.40
2022-09-16T23:46:57.747Z,1.00
2022-09-16T23:52:01.852Z,0.80
2022-09-16T23:57:03.173Z,0.90
